createdAt,value
2019-04-10T00:01:07.752Z,9.60
2019-04-10T00:03:43.851Z,9.60
2019-04-10T00:06:19.451Z,9.60
2019-04-10T00:08:54.751Z,9.50
2019-04-10T00:11:30.230Z,9.50
2019-04-10T00:14:06.018Z,9.40
2019-04-10T00:16:41.203Z,9.40
2019-04-10T00:19:16.724Z,9.40
2019-04-10T00:21:51.956Z,9.30
2019-04-10T00:24:28.109Z,9.30
2019-04-10T00:27:04.090Z,9.20
2019-04-10T00:29:40.357Z,9.20
2019-04-10T00:32:16.136Z,9.00
2019-04-10T00:34:51.516Z,9.00
2019-04-10T00:37:29.876Z,9.00
2019-04-10T00:40:03.585Z,8.90
2019-04-10T00:42:38.781Z,8.90
2019-04-10T00:45:14.066Z,8.90
2019-04-10T00:47:49.278Z,8.90
2019-04-10T00:50:24.520Z,8.80
2019-04-10T00:53:00.843Z,8.70
2019-04-10T00:55:36.160Z,8.70
2019-04-10T00:58:12.117Z,8.60
2019-04-10T01:00:47.682Z,8.60
2019-04-10T01:03:42.033Z,8.60
2019-04-10T01:06:17.445Z,8.50
2019-04-10T01:08:53.119Z,8.50
2019-04-10T01:11:28.478Z,8.40
2019-04-10T01:14:03.693Z,8.30
2019-04-10T01:16:39.762Z,8.30
2019-04-10T01:19:15.542Z,8.30
2019-04-10T01:21:50.857Z,8.30
2019-04-10T01:24:27.936Z,8.30
2019-04-10T01:27:03.422Z,8.20
2019-04-10T01:29:39.904Z,8.20
2019-04-10T01:32:15.409Z,8.10
2019-04-10T01:34:51.710Z,8.10
2019-04-10T01:37:28.872Z,8.00
2019-04-10T01:40:04.557Z,8.00
2019-04-10T01:42:40.653Z,8.00
2019-04-10T01:45:16.092Z,7.90
2019-04-10T01:47:51.301Z,7.90
2019-04-10T01:50:26.572Z,7.90
2019-04-10T01:53:01.828Z,7.80
2019-04-10T01:55:37.170Z,7.80
2019-04-10T01:58:19.097Z,7.70
2019-04-10T02:01:03.908Z,7.70
2019-04-10T02:03:39.368Z,7.70
2019-04-10T02:06:15.508Z,7.70
2019-04-10T02:08:50.710Z,7.70
2019-04-10T02:11:25.989Z,7.60
2019-04-10T02:14:02.227Z,7.60
2019-04-10T02:16:37.433Z,7.60
2019-04-10T02:19:12.652Z,7.50
2019-04-10T02:21:47.902Z,7.50
2019-04-10T02:24:23.174Z,7.40
2019-04-10T02:26:58.407Z,7.40
2019-04-10T02:29:33.743Z,7.40
2019-04-10T02:32:10.159Z,7.40
2019-04-10T02:34:46.913Z,7.30
2019-04-10T02:37:23.015Z,7.30
2019-04-10T02:40:02.287Z,7.30
2019-04-10T02:42:38.813Z,7.30
2019-04-10T02:45:14.885Z,7.30
2019-04-10T02:47:50.993Z,7.30
2019-04-10T02:50:27.318Z,7.20
2019-04-10T02:53:03.408Z,7.20
2019-04-10T02:55:38.773Z,7.20
2019-04-10T02:58:18.584Z,7.20
2019-04-10T03:00:54.877Z,7.20
2019-04-10T03:03:31.442Z,7.20
2019-04-10T03:06:07.421Z,7.10
2019-04-10T03:08:58.979Z,7.10
2019-04-10T03:11:22.230Z,7.20
2019-04-10T03:13:59.100Z,7.20
2019-04-10T03:16:35.390Z,7.20
2019-04-10T03:19:11.647Z,7.20
2019-04-10T03:21:47.152Z,7.20
2019-04-10T03:24:23.230Z,7.20
2019-04-10T03:26:58.514Z,7.10
2019-04-10T03:29:33.768Z,7.20
2019-04-10T03:32:31.010Z,7.10
2019-04-10T03:35:10.977Z,7.20
2019-04-10T03:37:46.695Z,7.10
2019-04-10T03:40:22.324Z,7.10
2019-04-10T03:42:57.525Z,7.20
2019-04-10T03:45:32.826Z,7.10
2019-04-10T03:48:08.422Z,7.10
2019-04-10T03:50:43.754Z,7.10
2019-04-10T03:53:20.170Z,7.10
2019-04-10T03:55:55.499Z,7.00
2019-04-10T03:58:31.538Z,7.00
2019-04-10T04:01:06.940Z,7.00
2019-04-10T04:03:42.661Z,6.90
2019-04-10T04:06:18.013Z,6.90
2019-04-10T04:09:03.226Z,6.90
2019-04-10T04:11:30.039Z,6.90
2019-04-10T04:14:06.207Z,6.80
2019-04-10T04:16:41.567Z,6.80
2019-04-10T04:19:17.642Z,6.80
2019-04-10T04:21:53.036Z,6.70
2019-04-10T04:24:28.207Z,6.70
2019-04-10T04:27:03.387Z,6.60
2019-04-10T04:29:39.114Z,6.60
2019-04-10T04:32:15.619Z,6.60
2019-04-10T04:34:50.810Z,6.50
2019-04-10T04:37:26.034Z,6.50
2019-04-10T04:40:01.625Z,6.40
2019-04-10T04:42:36.770Z,6.40
2019-04-10T04:45:12.759Z,6.40
2019-04-10T04:47:48.154Z,6.30
2019-04-10T04:50:23.386Z,6.30
2019-04-10T04:52:58.878Z,6.30
2019-04-10T04:55:35.189Z,6.20
2019-04-10T04:58:11.800Z,6.20
2019-04-10T05:00:48.286Z,6.10
2019-04-10T05:03:25.589Z,6.10
2019-04-10T05:06:02.515Z,6.10
2019-04-10T05:08:37.873Z,6.10
2019-04-10T05:11:13.891Z,6.10
2019-04-10T05:13:49.199Z,6.10
2019-04-10T05:16:24.863Z,6.10
2019-04-10T05:19:00.250Z,6.10
2019-04-10T05:21:35.514Z,6.10
2019-04-10T05:24:15.806Z,6.10
2019-04-10T05:26:51.206Z,6.10
2019-04-10T05:29:29.095Z,6.20
2019-04-10T05:32:07.233Z,6.10
2019-04-10T05:34:43.335Z,6.10
2019-04-10T05:37:19.149Z,6.10
2019-04-10T05:39:55.376Z,6.10
2019-04-10T05:42:31.008Z,6.10
2019-04-10T05:45:07.154Z,6.10
2019-04-10T05:47:42.356Z,6.10
2019-04-10T05:50:19.404Z,6.10
2019-04-10T05:52:55.806Z,6.10
2019-04-10T05:55:33.094Z,6.10
2019-04-10T05:58:09.222Z,6.10
2019-04-10T06:00:45.052Z,6.00
2019-04-10T06:03:20.707Z,6.00
2019-04-10T06:05:56.689Z,6.00
2019-04-10T06:08:33.348Z,6.10
2019-04-10T06:11:08.755Z,6.00
2019-04-10T06:13:45.067Z,6.10
2019-04-10T06:16:20.546Z,6.20
2019-04-10T06:18:55.786Z,6.20
2019-04-10T06:21:31.431Z,6.20
2019-04-10T06:24:07.795Z,6.20
2019-04-10T06:26:44.372Z,6.10
2019-04-10T06:29:39.367Z,6.10
2019-04-10T06:32:14.536Z,6.10
2019-04-10T06:34:56.121Z,6.10
2019-04-10T06:37:40.148Z,6.10
2019-04-10T06:40:19.679Z,6.20
2019-04-10T06:42:55.368Z,6.20
2019-04-10T06:45:31.469Z,6.20
2019-04-10T06:48:06.975Z,6.30
2019-04-10T06:50:44.526Z,6.30
2019-04-10T06:53:21.215Z,6.40
2019-04-10T06:55:56.578Z,6.50
2019-04-10T06:58:32.263Z,6.60
2019-04-10T07:01:08.369Z,6.60
2019-04-10T07:03:52.795Z,6.70
2019-04-10T07:06:22.738Z,6.80
2019-04-10T07:08:57.586Z,6.90
2019-04-10T07:11:32.830Z,7.00
2019-04-10T07:14:13.464Z,7.00
2019-04-10T07:16:45.973Z,7.10
2019-04-10T07:19:21.246Z,7.20
2019-04-10T07:21:58.923Z,7.30
2019-04-10T07:24:37.013Z,7.30
2019-04-10T07:27:11.940Z,7.40
2019-04-10T07:29:50.839Z,7.50
2019-04-10T07:32:24.372Z,7.60
2019-04-10T07:35:01.127Z,7.70
2019-04-10T07:37:37.826Z,7.80
2019-04-10T07:40:12.996Z,7.80
2019-04-10T07:42:48.692Z,7.80
2019-04-10T07:45:27.126Z,7.90
2019-04-10T07:48:00.826Z,8.00
2019-04-10T07:50:37.114Z,8.00
2019-04-10T07:53:12.793Z,8.10
2019-04-10T07:55:58.421Z,8.20
2019-04-10T07:58:25.189Z,8.30
2019-04-10T08:01:00.975Z,8.40
2019-04-10T08:03:37.312Z,8.50
2019-04-10T08:06:13.117Z,8.60
2019-04-10T08:08:49.178Z,8.70
2019-04-10T08:11:24.503Z,8.90
2019-04-10T08:13:59.725Z,8.90
2019-04-10T08:16:36.069Z,8.90
2019-04-10T08:19:12.449Z,9.10
2019-04-10T08:21:47.814Z,9.10
2019-04-10T08:24:23.771Z,9.30
2019-04-10T08:26:59.095Z,9.40
2019-04-10T08:29:34.425Z,9.50
2019-04-10T08:32:09.934Z,9.50
2019-04-10T08:34:46.391Z,9.60
2019-04-10T08:37:21.592Z,9.70
2019-04-10T08:39:56.899Z,9.80
2019-04-10T08:42:33.224Z,9.80
2019-04-10T08:45:09.194Z,10.00
2019-04-10T08:47:44.696Z,10.00
2019-04-10T08:50:19.982Z,10.10
2019-04-10T08:52:55.766Z,10.20
2019-04-10T08:55:32.282Z,10.30
2019-04-10T08:58:08.369Z,10.50
2019-04-10T09:00:44.803Z,10.60
2019-04-10T09:03:20.089Z,10.60
2019-04-10T09:05:55.338Z,10.60
2019-04-10T09:08:30.510Z,10.60
2019-04-10T09:11:05.760Z,10.80
2019-04-10T09:13:41.037Z,11.00
2019-04-10T09:16:16.402Z,11.00
2019-04-10T09:18:51.642Z,11.00
2019-04-10T09:21:26.834Z,11.10
2019-04-10T09:24:02.681Z,11.20
2019-04-10T09:26:40.097Z,11.40
2019-04-10T09:29:16.097Z,11.40
2019-04-10T09:31:51.395Z,11.40
2019-04-10T09:34:27.586Z,11.50
2019-04-10T09:37:03.865Z,11.60
2019-04-10T09:39:39.492Z,11.70
2019-04-10T09:42:14.919Z,11.70
2019-04-10T09:44:50.663Z,11.60
2019-04-10T09:47:26.879Z,11.50
2019-04-10T09:50:02.414Z,11.50
2019-04-10T09:52:37.811Z,11.50
2019-04-10T09:55:13.894Z,11.40
2019-04-10T09:57:49.750Z,11.20
2019-04-10T10:00:27.870Z,10.90
2019-04-10T10:03:03.505Z,10.70
2019-04-10T10:05:39.159Z,10.50
2019-04-10T10:08:14.493Z,10.40
2019-04-10T10:10:49.704Z,10.30
2019-04-10T10:13:25.584Z,10.10
2019-04-10T10:16:01.213Z,10.00
2019-04-10T10:18:37.292Z,10.00
2019-04-10T10:21:12.591Z,10.00
2019-04-10T10:23:47.830Z,10.00
2019-04-10T10:26:23.951Z,10.00
2019-04-10T10:29:00.598Z,10.10
2019-04-10T10:31:36.091Z,10.10
2019-04-10T10:34:12.321Z,10.20
2019-04-10T10:36:50.527Z,10.30
2019-04-10T10:39:24.647Z,10.30
2019-04-10T10:42:00.226Z,10.30
2019-04-10T10:44:36.253Z,10.40
2019-04-10T10:47:11.760Z,10.60
2019-04-10T10:49:47.029Z,10.80
2019-04-10T10:52:22.220Z,10.90
2019-04-10T10:54:57.664Z,11.10
2019-04-10T10:57:36.004Z,11.30
2019-04-10T11:00:13.304Z,11.50
2019-04-10T11:02:49.771Z,11.60
2019-04-10T11:05:25.385Z,11.80
2019-04-10T11:08:00.601Z,11.90
2019-04-10T11:10:35.856Z,11.90
2019-04-10T11:13:11.087Z,12.00
2019-04-10T11:15:46.367Z,12.10
2019-04-10T11:18:22.248Z,12.30
2019-04-10T11:21:03.929Z,12.40
2019-04-10T11:23:36.286Z,12.50
2019-04-10T11:26:14.068Z,12.50
2019-04-10T11:28:49.544Z,12.50
2019-04-10T11:31:25.189Z,12.50
2019-04-10T11:34:00.432Z,12.70
2019-04-10T11:36:36.195Z,12.70
2019-04-10T11:39:21.895Z,12.80
2019-04-10T11:41:50.414Z,13.00
2019-04-10T11:44:27.437Z,13.10
2019-04-10T11:47:05.574Z,13.20
2019-04-10T11:52:19.529Z,13.40
2019-04-10T11:57:32.597Z,13.50
2019-04-10T12:00:12.038Z,13.50
2019-04-10T12:02:47.397Z,13.60
2019-04-10T12:05:25.884Z,13.50
2019-04-10T12:13:19.769Z,13.70
2019-04-10T12:15:55.177Z,13.60
2019-04-10T12:18:30.774Z,13.70
2019-04-10T12:21:07.338Z,13.70
2019-04-10T12:23:43.121Z,13.70
2019-04-10T12:26:18.350Z,13.70
2019-04-10T12:28:53.975Z,13.90
2019-04-10T12:31:30.174Z,13.90
2019-04-10T12:34:06.552Z,13.90
2019-04-10T12:36:42.716Z,13.80
2019-04-10T12:39:18.379Z,13.90
2019-04-10T12:41:53.563Z,13.90
2019-04-10T12:44:29.671Z,14.00
2019-04-10T12:47:05.764Z,14.00
2019-04-10T12:49:58.047Z,14.00
2019-04-10T12:52:34.487Z,14.00
2019-04-10T12:55:10.213Z,14.00
2019-04-10T12:57:47.543Z,14.10
2019-04-10T13:00:23.739Z,14.00
2019-04-10T13:02:58.919Z,14.10
2019-04-10T13:05:34.669Z,14.10
2019-04-10T13:08:17.842Z,14.00
2019-04-10T13:10:47.751Z,13.90
2019-04-10T13:13:24.237Z,14.10
2019-04-10T13:15:59.504Z,14.10
2019-04-10T13:18:34.900Z,14.10
2019-04-10T13:21:10.460Z,14.30
2019-04-10T13:23:46.819Z,14.30
2019-04-10T13:26:22.140Z,14.30
2019-04-10T13:28:58.122Z,14.30
2019-04-10T13:31:33.526Z,14.30
2019-04-10T13:34:09.064Z,14.30
2019-04-10T13:36:44.263Z,14.40
2019-04-10T13:39:20.411Z,14.30
2019-04-10T13:41:56.678Z,14.40
2019-04-10T13:44:32.912Z,14.40
2019-04-10T13:47:09.051Z,14.40
2019-04-10T13:49:48.371Z,14.40
2019-04-10T13:52:23.858Z,14.40
2019-04-10T13:55:01.055Z,14.40
2019-04-10T13:57:36.942Z,14.40
2019-04-10T14:00:20.146Z,14.40
2019-04-10T14:02:56.281Z,14.40
2019-04-10T14:05:33.682Z,14.40
2019-04-10T14:08:08.637Z,14.50
2019-04-10T14:10:44.593Z,14.50
2019-04-10T14:13:21.938Z,14.50
2019-04-10T14:15:58.085Z,14.50
2019-04-10T14:18:33.270Z,14.60
2019-04-10T14:21:12.942Z,14.50
2019-04-10T14:23:45.543Z,14.50
2019-04-10T14:26:43.963Z,14.60
2019-04-10T14:29:16.402Z,14.40
2019-04-10T14:31:56.725Z,14.50
2019-04-10T14:34:31.918Z,14.40
2019-04-10T14:37:11.490Z,14.50
2019-04-10T14:39:47.867Z,14.40
2019-04-10T14:42:23.065Z,14.50
2019-04-10T14:44:59.268Z,14.40
2019-04-10T14:47:35.868Z,14.50
2019-04-10T14:50:11.160Z,14.40
2019-04-10T14:52:47.439Z,14.40
2019-04-10T14:55:24.062Z,14.40
2019-04-10T14:57:59.314Z,14.40
2019-04-10T15:00:44.930Z,14.30
2019-04-10T15:03:20.277Z,14.40
2019-04-10T15:05:57.024Z,14.40
2019-04-10T15:08:33.213Z,14.30
2019-04-10T15:11:08.689Z,14.30
2019-04-10T15:13:43.870Z,14.30
2019-04-10T15:16:19.196Z,14.20
2019-04-10T15:18:54.380Z,14.30
2019-04-10T15:21:29.624Z,14.30
2019-04-10T15:24:04.783Z,14.20
2019-04-10T15:26:40.461Z,14.20
2019-04-10T15:29:16.244Z,14.20
2019-04-10T15:31:52.271Z,14.10
2019-04-10T15:34:28.263Z,14.10
2019-04-10T15:37:04.595Z,14.20
2019-04-10T15:39:41.445Z,14.10
2019-04-10T15:42:16.636Z,14.00
2019-04-10T15:44:51.845Z,13.90
2019-04-10T15:47:27.213Z,13.70
2019-04-10T15:50:02.459Z,13.70
2019-04-10T15:52:37.765Z,13.70
2019-04-10T15:55:13.344Z,13.60
2019-04-10T15:57:53.735Z,13.60
2019-04-10T16:00:25.457Z,13.60
2019-04-10T16:03:00.790Z,13.50
2019-04-10T16:05:36.111Z,13.40
2019-04-10T16:08:12.621Z,13.30
2019-04-10T16:10:55.121Z,13.20
2019-04-10T16:13:34.599Z,13.20
2019-04-10T16:16:27.587Z,13.10
2019-04-10T16:19:12.453Z,13.00
2019-04-10T16:21:47.927Z,12.90
2019-04-10T16:24:23.174Z,12.80
2019-04-10T16:26:58.430Z,12.70
2019-04-10T16:29:34.310Z,12.70
2019-04-10T16:32:10.603Z,12.60
2019-04-10T16:34:47.030Z,12.50
2019-04-10T16:37:22.314Z,12.50
2019-04-10T16:40:03.289Z,12.40
2019-04-10T16:42:34.847Z,12.40
2019-04-10T16:45:10.288Z,12.30
2019-04-10T16:47:46.269Z,12.30
2019-04-10T16:50:21.682Z,12.20
2019-04-10T16:52:57.785Z,12.10
2019-04-10T16:55:33.168Z,12.10
2019-04-10T16:58:09.518Z,12.10
2019-04-10T17:00:45.301Z,11.90
2019-04-10T17:03:21.809Z,11.90
2019-04-10T17:05:57.727Z,11.90
2019-04-10T17:08:38.868Z,11.80
2019-04-10T17:11:15.389Z,11.80
2019-04-10T17:13:50.910Z,11.70
2019-04-10T17:16:26.298Z,11.70
2019-04-10T17:19:01.943Z,11.60
2019-04-10T17:21:38.410Z,11.50
2019-04-10T17:24:13.749Z,11.50
2019-04-10T17:26:49.015Z,11.40
2019-04-10T17:29:25.139Z,11.30
2019-04-10T17:32:00.505Z,11.30
2019-04-10T17:34:35.690Z,11.20
2019-04-10T17:37:11.738Z,11.20
2019-04-10T17:39:47.338Z,11.10
2019-04-10T17:42:24.021Z,11.00
2019-04-10T17:45:07.877Z,11.00
2019-04-10T17:48:06.592Z,10.90
2019-04-10T17:50:41.783Z,10.80
2019-04-10T17:53:26.371Z,10.70
2019-04-10T17:56:04.570Z,10.70
2019-04-10T17:58:41.460Z,10.70
2019-04-10T18:01:21.053Z,10.60
2019-04-10T18:03:59.019Z,10.60
2019-04-10T18:06:39.628Z,10.60
2019-04-10T18:09:17.995Z,10.50
2019-04-10T18:11:54.214Z,10.40
2019-04-10T18:14:37.952Z,10.40
2019-04-10T18:17:20.003Z,10.30
2019-04-10T18:19:58.613Z,10.20
2019-04-10T18:22:34.384Z,10.10
2019-04-10T18:25:11.917Z,10.10
2019-04-10T18:27:47.197Z,10.00
2019-04-10T18:30:22.429Z,10.00
2019-04-10T18:32:58.185Z,9.90
2019-04-10T18:35:33.714Z,9.90
2019-04-10T18:38:09.141Z,9.70
2019-04-10T18:40:53.248Z,9.70
2019-04-10T18:43:22.273Z,9.70
2019-04-10T18:46:08.829Z,9.70
2019-04-10T18:48:34.673Z,9.60
2019-04-10T18:51:12.211Z,9.50
2019-04-10T18:53:47.606Z,9.50
2019-04-10T18:56:22.984Z,9.40
2019-04-10T18:59:34.359Z,9.30
2019-04-10T19:02:32.837Z,9.30
2019-04-10T19:05:19.294Z,9.20
2019-04-10T19:07:54.685Z,9.20
2019-04-10T19:10:30.603Z,9.20
2019-04-10T19:13:07.256Z,9.10
2019-04-10T19:15:42.623Z,9.00
2019-04-10T19:18:17.923Z,9.10
2019-04-10T19:20:53.248Z,9.00
2019-04-10T19:23:31.534Z,9.00
2019-04-10T19:26:09.489Z,9.00
2019-04-10T19:28:45.069Z,9.00
2019-04-10T19:31:23.832Z,8.90
2019-04-10T19:33:59.017Z,8.90
2019-04-10T19:36:34.458Z,8.80
2019-04-10T19:39:09.808Z,8.80
2019-04-10T19:41:46.986Z,8.80
2019-04-10T19:44:23.212Z,8.80
2019-04-10T19:46:58.418Z,8.70
2019-04-10T19:49:33.649Z,8.60
2019-04-10T19:52:10.002Z,8.60
2019-04-10T19:54:45.226Z,8.60
2019-04-10T19:57:22.149Z,8.50
2019-04-10T19:59:57.837Z,8.40
2019-04-10T20:02:33.302Z,8.40
2019-04-10T20:05:09.461Z,8.40
2019-04-10T20:07:45.000Z,8.40
2019-04-10T20:10:21.366Z,8.30
2019-04-10T20:12:57.249Z,8.30
2019-04-10T20:15:32.605Z,8.30
2019-04-10T20:18:08.580Z,8.30
2019-04-10T20:20:44.033Z,8.20
2019-04-10T20:23:21.529Z,8.10
2019-04-10T20:25:57.066Z,8.10
2019-04-10T20:28:33.104Z,8.00
2019-04-10T20:31:11.802Z,8.00
2019-04-10T20:33:47.373Z,8.00
2019-04-10T20:36:22.832Z,8.00
2019-04-10T20:38:59.044Z,7.90
2019-04-10T20:41:47.629Z,7.90
2019-04-10T20:44:14.395Z,7.90
2019-04-10T20:46:53.026Z,7.80
2019-04-10T20:49:28.387Z,7.90
2019-04-10T20:52:10.254Z,7.70
2019-04-10T20:54:46.864Z,7.80
2019-04-10T20:57:23.474Z,7.70
2019-04-10T20:59:59.546Z,7.70
2019-04-10T21:02:36.006Z,7.60
2019-04-10T21:05:15.376Z,7.60
2019-04-10T21:07:52.296Z,7.50
2019-04-10T21:10:28.971Z,7.50
2019-04-10T21:13:04.619Z,7.40
2019-04-10T21:15:42.243Z,7.30
2019-04-10T21:18:19.677Z,7.20
2019-04-10T21:20:55.763Z,7.20
2019-04-10T21:23:31.403Z,7.10
2019-04-10T21:26:07.896Z,7.00
2019-04-10T21:28:43.681Z,7.00
2019-04-10T21:31:53.526Z,6.90
2019-04-10T21:34:33.255Z,6.90
2019-04-10T21:37:08.700Z,6.80
2019-04-10T21:39:44.102Z,6.80
2019-04-10T21:42:22.729Z,6.80
2019-04-10T21:44:57.511Z,6.70
2019-04-10T21:47:33.441Z,6.70
2019-04-10T21:50:09.285Z,6.60
2019-04-10T21:52:45.519Z,6.60
2019-04-10T21:55:22.463Z,6.60
2019-04-10T21:57:59.591Z,6.50
2019-04-10T22:00:53.770Z,6.60
2019-04-10T22:03:29.739Z,6.50
2019-04-10T22:06:26.481Z,6.50
2019-04-10T22:09:26.894Z,6.40
2019-04-10T22:12:05.828Z,6.40
2019-04-10T22:14:42.190Z,6.30
2019-04-10T22:17:17.712Z,6.30
2019-04-10T22:19:53.369Z,6.30
2019-04-10T22:22:28.898Z,6.30
2019-04-10T22:25:05.332Z,6.30
2019-04-10T22:27:41.402Z,6.30
2019-04-10T22:30:17.310Z,6.30
2019-04-10T22:32:53.456Z,6.30
2019-04-10T22:35:28.948Z,6.20
2019-04-10T22:38:04.581Z,6.20
2019-04-10T22:40:40.168Z,6.20
2019-04-10T22:43:15.910Z,6.10
2019-04-10T22:45:51.419Z,6.10
2019-04-10T22:48:28.691Z,6.00
2019-04-10T22:51:04.709Z,6.10
2019-04-10T22:53:42.036Z,6.10
2019-04-10T22:56:17.443Z,6.10
2019-04-10T22:58:53.249Z,6.00
2019-04-10T23:01:29.312Z,6.00
2019-04-10T23:04:05.870Z,5.90
2019-04-10T23:06:41.615Z,5.80
2019-04-10T23:09:17.327Z,5.80
2019-04-10T23:11:53.903Z,5.70
2019-04-10T23:14:29.391Z,5.70
2019-04-10T23:17:04.816Z,5.70
2019-04-10T23:19:40.434Z,5.60
2019-04-10T23:22:16.820Z,5.60
2019-04-10T23:24:52.322Z,5.60
2019-04-10T23:27:28.288Z,5.60
2019-04-10T23:30:05.597Z,5.60
2019-04-10T23:32:41.605Z,5.50
2019-04-10T23:35:17.245Z,5.50
2019-04-10T23:37:53.070Z,5.40
2019-04-10T23:40:29.307Z,5.40
2019-04-10T23:43:12.236Z,5.30
2019-04-10T23:45:41.957Z,5.30
2019-04-10T23:48:17.357Z,5.30
2019-04-10T23:50:52.790Z,5.30
2019-04-10T23:53:28.787Z,5.30
2019-04-10T23:56:04.455Z,5.20
2019-04-10T23:58:40.910Z,5.30
